My Meet Scores
Mia Pagliero, Gym Kinetics Gymnastics - MyMeetScores.com
Top100 | Top Teams | Upcoming Meets | Completed Meets | Latest | Add Scores | Help| Support | Bookmark and Share

Mia Pagliero, Gym Kinetics Gymnastics
Personal Bests
LevelVault BarsBeamFloorAA
39.3259.125 9.1259.37536.400
48.5009.000 9.2759.15035.400
59.3259.475 9.5009.35037.225
79.2259.550 9.5759.67537.425
89.2509.425 9.3259.40036.450
Meet Scores
Date Meet Team Session Level Division Vault Bars Beam Floor AA
2020-03-06 2020 Flip'r Invitational Gym Kinetics Gymnastics 6 8 JR A 9.250 6 9.325 8 8.950 6 8.925 10 36.450 6
2020-02-21 Kinetic Classic Gym Kinetics Gymnastics 04 8 Younger 9.125 6 9.425 7 8.950 12 7.450 25 34.950 18
2020-01-31 Chow's Challenge Gym Kinetics Gymnastics A2 8 JR 8.400 5T 9.025 4 9.225 2 9.150 3T 35.800 3
2020-01-17 2020 Bravo Classic Gym Kinetics Gymnastics 6A 8 Child 8.800 8 8.650 12 9.200 6T 9.350 6T 36.000 8
2020-01-10 Leenda's Island Adventure Gym Kinetics Gymnastics PG3 8 11 & Under 8.800 7 9.100 5T 8.300 8 9.400 1 35.600 6
2019-12-20 Aspire Classic - 2019 Gym Kinetics Gymnastics 2A 8 Younger 8.950 4 9.000 5 9.300 3 8.750 7 36.000 3
2019-12-07 Home for the Holidays 2019 Gym Kinetics Gymnastics 3 8 Younger 8.900 7 8.250 12 9.325 2 9.150 6T 35.625 6
2019-03-29 Illinois Level 7 & 8 State Meet Gym Kinetics Gymnastics 6 7 Jr B 9.000 15* 9.300 15T 9.575 3 9.550 5 37.425 6T
2019-03-01 NGCD Academy's 2019 Flip'r Invitational Gym Kinetics Gymnastics 6 7 Jr A 9.000 5T 8.575 11 8.050 12 9.275 6 34.900 11
2019-02-23 Kinetic Classic 2019 Gym Kinetics Gymnastics 1 7 Younger 9.225 1 9.300 5 9.450 5T 9.200 7 37.175 1
2019-02-08 Midwest Twisters Harley Meet Womens Gym Kinetics Gymnastics O03 7 10 un 8.625 4 9.550 1 8.975 1 9.200 3 36.350 2
2019-01-18 2019 Bravo Classic Gym Kinetics Gymnastics 9A 7 Child 8.900 11T 9.200 11 8.900 15 9.525 5T 36.525 12
2019-01-11 St Jude Benefit Meet Gym Kinetics Gymnastics 5B 7 Jr A 8.650 10T 8.850 15 9.250 5T 9.675 2 36.425 10
2018-12-14 2018 Aspire Classic Gym Kinetics Gymnastics 10B 7 Younger 8.800 6T 9.175 8 9.350 8 9.500 4 36.825 5
2018-03-08 Level 4 & 5 State Gym Kinetics Gymnastics All 5 Ch A 9.325 7 9.350 1 9.500 2T 9.050 16T 37.225 3
2018-02-23 Kinetic Classic Gym Kinetics Gymnastics 8 5 Younger 9.150 25T 9.000 41T 9.325 17 9.350 22T 36.825 17
2018-02-09 Arizona Sunrays Classic Rock Invitational Gym Kinetics Gymnastics R05 5 JrA 9.150 1 9.400 2 9.275 3T 8.750 7 36.575 1
2018-02-03 Midwest Games Gym Kinetics Gymnastics 7 5 JR 9.125 6 9.150 5 8.950 8 9.200 6T 36.425 6
2018-01-19 2018 Bravo Classic Gym Kinetics Gymnastics 3B 5 Child 9.275 9T 9.475 3 9.300 5 9.175 4T 37.225 3
2017-12-15 2017 Aspire Classic Gym Kinetics Gymnastics 6A 5 Younger 9.075 7 9.200 8T 9.025 9 8.850 14T 36.150 10T
2017-03-10 2017 Illinois Level 4 State Championships United Gymnastics Academy 1 4 Ch C 7.900 29 9.000 12T 9.225 10 8.825 15 34.950 17
2017-02-17 Big Classic United Gymnastics Academy B 4 Child A 8.200 40 8.900 21T 8.200 46T 8.150 44 33.450 38
2017-01-27 2017 UGA Invitational United Gymnastics Academy C12 4 Child 8.225 12T 8.950 6 9.275 7 8.950 7 35.400 8
2017-01-13 Legacy Elite Winter Classic United Gymnastics Academy B5 4 ChA 8.500 4 8.325 8 9.150 4 9.150 3 35.125 6
2016-12-16 2016 Aspire Classic United Gymnastics Academy 6 4 Younger 8.250 15 7.650 16T 8.925 9 8.775 11 33.600 12
2016-12-09 St. Nick Invite United Gymnastics Academy 6 4 Junior 8.025 22 8.600 20T 8.600 22T 8.625 21 33.850 24
2016-03-04 2016 Illinois Level 3 State Championships United Gymnastics Academy 3 Child-D 9.325 11 8.800 21 8.700 12 8.575 24 35.400 17
2016-02-20 Big Classic United Gymnastics Academy 4B 3 Child A 8.825 10 8.400 9 9.100 4 8.950 6 35.275 6
2016-01-15 2016 Bravo Classic United Gymnastics Academy 15A 3 6-7yrs 8.950 17T 9.025 11 9.050 4 9.375 3 36.400 6T
2016-01-08 Legacy Elite Winter Classic United Gymnastics Academy 2B 3 Ch A 8.425 9 8.150 8 8.600 8 8.850 3T 34.025 7
2015-12-18 2015 Aspire Classic United Gymnastics Academy 9 3 Younger 8.850 15 9.125 3T 9.125 1T 8.850 7 35.950 5
2015-12-11 St. Nick Invite United Gymnastics Academy 5B 3 All 8.850 25T 8.600 31T 8.550 19 8.650 30T 34.650 24
Get your scores on
a t-shirt, pin, or hoodie

www.lazysuits.com